Time;durP1;ratioP1;P1;durP2;ratioP2;P2;SDS_P1;SDS_P2;PMS_P1;PMS_P2;Temp;Humidity;BMP_temperature;BMP_pressure;BME280_temperature;BME280_humidity;BME280_pressure;Samples;Min_cycle;Max_cycle;Signal;HPM_P1;HPM_P2
2022/05/11 00:01:12;;;;;;;2.13;2.03;;;;;;;14.48;86.63;99249.84;8381722;28;20083;-73
2022/05/11 00:05:14;;;;;;;3.15;1.70;;;;;;;14.42;86.83;99253.44;8384979;28;20776;-72
2022/05/11 00:09:16;;;;;;;2.10;2.00;;;;;;;14.36;87.16;99243.13;8368760;28;20044;-72
2022/05/11 00:13:18;;;;;;;1.85;1.75;;;;;;;14.37;86.72;99247.47;8387815;28;20151;-72
2022/05/11 00:17:19;;;;;;;2.78;2.15;;;;;;;14.34;86.80;99241.41;8390117;28;20506;-72
2022/05/11 00:21:22;;;;;;;2.40;2.20;;;;;;;14.30;87.25;99235.41;8410262;28;20067;-73
2022/05/11 00:25:25;;;;;;;1.75;1.65;;;;;;;14.29;87.15;99233.69;8417357;28;20043;-72
2022/05/11 00:29:26;;;;;;;4.05;2.05;;;;;;;14.24;87.60;99239.91;8399929;28;20040;-72
2022/05/11 00:33:28;;;;;;;3.13;1.90;;;;;;;14.22;87.56;99234.72;8411590;28;20737;-72
2022/05/11 00:37:30;;;;;;;3.17;2.38;;;;;;;14.22;87.73;99232.13;8427994;28;20039;-72
2022/05/11 00:41:31;;;;;;;2.23;2.07;;;;;;;14.21;87.49;99227.78;8414554;28;20056;-72
2022/05/11 00:45:33;;;;;;;2.40;2.20;;;;;;;14.20;87.60;99231.28;8414300;28;20680;-73
2022/05/11 00:49:39;;;;;;;1.70;1.60;;;;;;;14.12;87.74;99220.13;8405542;28;20040;-72
2022/05/11 00:53:47;;;;;;;3.08;1.83;;;;;;;14.07;87.98;99225.47;8396650;28;20734;-72
2022/05/11 00:58:07;;;;;;;3.70;2.05;;;;;;;13.97;88.22;99213.47;8399609;28;20119;-72
2022/05/11 01:02:08;;;;;;;1.80;1.70;;;;;;;13.92;88.39;99212.72;8415254;28;20431;-72
2022/05/11 01:06:12;;;;;;;3.20;2.28;;;;;;;13.90;89.51;99214.50;8413647;28;20058;-72
2022/05/11 01:10:13;;;;;;;2.15;2.05;;;;;;;13.88;89.08;99209.34;8417507;28;20336;-72
2022/05/11 01:14:19;;;;;;;2.15;2.03;;;;;;;13.85;88.87;99204.19;8405585;28;20048;-72
2022/05/11 01:18:24;;;;;;;2.30;2.00;;;;;;;13.84;88.54;99204.22;8415749;28;20051;-72
2022/05/11 01:22:40;;;;;;;2.38;1.83;;;;;;;13.81;88.76;99206.88;8415883;28;20048;-72
2022/05/11 01:26:41;;;;;;;1.75;1.65;;;;;;;13.76;88.96;99200.88;8395092;28;20135;-72
2022/05/11 01:30:48;;;;;;;1.80;1.70;;;;;;;13.77;89.44;99205.22;8413463;28;20063;-72
2022/05/11 01:34:56;;;;;;;2.22;2.13;;;;;;;13.75;89.19;99204.38;8397788;28;20128;-73
2022/05/11 01:39:04;;;;;;;2.15;2.05;;;;;;;13.72;89.28;99201.84;8398018;28;20044;-73
2022/05/11 01:43:06;;;;;;;2.95;1.70;;;;;;;13.68;89.00;99198.44;8400879;28;20040;-72
2022/05/11 01:47:07;;;;;;;2.33;2.20;;;;;;;13.62;88.92;99198.53;8395778;28;20058;-73
2022/05/11 01:51:11;;;;;;;4.22;2.28;;;;;;;13.60;89.78;99195.97;8419049;28;20078;-72
2022/05/11 01:55:13;;;;;;;1.95;1.85;;;;;;;13.63;89.52;99197.66;8395396;28;20400;-72
2022/05/11 01:59:14;;;;;;;2.03;1.93;;;;;;;13.59;88.99;99191.63;8416433;28;20054;-72
2022/05/11 02:03:18;;;;;;;2.33;1.95;;;;;;;13.56;88.89;99190.84;8410025;28;20540;-73
2022/05/11 02:11:40;;;;;;;4.47;1.85;;;;;;;13.47;88.74;99199.72;8423666;28;20086;-73
2022/05/11 02:15:42;;;;;;;2.20;2.03;;;;;;;13.45;88.81;99195.41;8387373;28;20058;-72
2022/05/11 02:19:43;;;;;;;2.30;1.83;;;;;;;13.41;88.74;99192.00;8403898;28;20455;-73
2022/05/11 02:23:47;;;;;;;2.70;1.88;;;;;;;13.33;88.93;99195.66;8424464;28;20052;-73
2022/05/11 02:27:50;;;;;;;2.13;2.03;;;;;;;13.28;89.34;99188.78;8423665;28;20436;-73
2022/05/11 02:31:52;;;;;;;1.60;1.48;;;;;;;13.24;89.18;99184.50;8422651;28;20367;-73
2022/05/11 02:35:54;;;;;;;2.00;1.90;;;;;;;13.21;89.34;99181.09;8420510;28;20120;-72
2022/05/11 02:39:56;;;;;;;;;;;;;;;13.16;89.91;99182.91;8418649;28;20053;-73
2022/05/11 02:43:57;;;;;;;1.80;1.70;;;;;;;13.17;89.57;99185.47;8407726;28;20042;-73
2022/05/11 02:48:01;;;;;;;1.83;1.73;;;;;;;13.14;90.18;99190.75;8398581;28;20059;-73
2022/05/11 02:52:03;;;;;;;1.88;1.50;;;;;;;13.13;89.90;99180.34;8423918;28;20603;-73
2022/05/11 02:56:05;;;;;;;4.00;1.85;;;;;;;13.10;90.12;99183.84;8422091;28;20127;-73
2022/05/11 03:00:10;;;;;;;1.77;1.67;;;;;;;13.10;90.62;99186.44;8403405;28;20123;-73
2022/05/11 03:04:11;;;;;;;1.88;1.65;;;;;;;13.12;90.10;99183.84;8421975;28;20527;-72
2022/05/11 03:08:13;;;;;;;3.03;1.98;;;;;;;13.11;89.96;99180.38;8398242;28;20050;-73
2022/05/11 03:12:14;;;;;;;3.60;2.27;;;;;;;13.09;89.97;99176.06;8416340;28;20111;-72
2022/05/11 03:16:16;;;;;;;3.13;2.27;;;;;;;13.07;90.90;99183.03;8397198;28;20159;-73
2022/05/11 03:20:21;;;;;;;1.80;1.67;;;;;;;13.05;91.52;99179.59;8413449;28;20376;-73
2022/05/11 03:24:24;;;;;;;2.40;1.95;;;;;;;13.05;91.08;99182.22;8418984;28;20048;-72
2022/05/11 03:28:25;;;;;;;1.98;1.88;;;;;;;13.01;90.93;99178.81;8407831;28;20439;-73
2022/05/11 03:36:50;;;;;;;1.95;1.85;;;;;;;13.06;91.62;99176.13;8414594;28;20106;-73
2022/05/11 03:40:51;;;;;;;3.47;2.00;;;;;;;13.03;91.45;99174.44;8416516;28;20123;-72
2022/05/11 03:44:53;;;;;;;2.70;1.80;;;;;;;13.02;91.11;99168.34;8391908;28;20502;-73
2022/05/11 03:48:55;;;;;;;3.58;1.70;;;;;;;13.00;90.80;99170.13;8414241;28;20612;-73
2022/05/11 03:52:57;;;;;;;2.03;1.92;;;;;;;12.96;90.77;99165.88;8413386;28;20135;-73
2022/05/11 03:56:58;;;;;;;2.17;2.00;;;;;;;12.94;90.97;99166.78;8381779;28;20043;-73
2022/05/11 04:01:00;;;;;;;1.93;1.83;;;;;;;12.95;91.56;99163.28;8396103;28;20479;-73
2022/05/11 04:05:02;;;;;;;2.57;1.97;;;;;;;12.93;91.12;99159.84;8395976;28;20048;-73
2022/05/11 04:09:05;;;;;;;2.15;2.00;;;;;;;12.94;91.72;99161.56;8396633;28;20040;-73
2022/05/11 04:13:08;;;;;;;2.25;1.95;;;;;;;13.03;91.95;99158.78;8395755;28;20786;-73
2022/05/11 04:17:09;;;;;;;2.00;1.90;;;;;;;13.09;91.20;99158.66;8403173;28;20158;-74
2022/05/11 04:21:12;;;;;;;2.80;2.60;;;;;;;13.25;91.05;99172.31;8397119;28;20376;-73
2022/05/11 04:25:15;;;;;;;2.40;2.20;;;;;;;13.41;90.41;99167.66;8424298;28;20741;-73
2022/05/11 04:29:17;;;;;;;2.50;2.13;;;;;;;13.51;89.86;99166.63;8420357;28;20075;-74
2022/05/11 04:33:19;;;;;;;2.03;1.93;;;;;;;13.67;90.03;99172.38;8398483;28;20079;-74
2022/05/11 04:37:20;;;;;;;2.15;2.05;;;;;;;13.77;89.32;99177.38;8402870;28;20126;-74
2022/05/11 04:41:22;;;;;;;2.40;1.87;;;;;;;13.86;88.45;99176.34;8422663;28;20046;-74
2022/05/11 04:45:25;;;;;;;2.88;1.85;;;;;;;13.95;87.68;99164.81;8393584;28;20483;-74
2022/05/11 04:49:27;;;;;;;3.17;2.40;;;;;;;14.12;87.17;99168.78;8397452;28;20040;-74
2022/05/11 04:53:29;;;;;;;2.90;2.70;;;;;;;14.30;86.33;99169.25;8394261;28;20036;-74
2022/05/11 04:57:32;;;;;;;2.75;1.98;;;;;;;14.45;85.33;99167.19;8403216;28;20498;-74
2022/05/11 05:01:36;;;;;;;2.50;1.70;;;;;;;14.66;84.31;99167.56;8419956;28;20158;-74
2022/05/11 05:05:39;;;;;;;2.50;1.67;;;;;;;14.88;82.94;99163.50;8420671;28;20050;-74
2022/05/11 05:09:41;;;;;;;1.90;1.70;;;;;;;15.09;81.69;99175.19;8419801;28;20151;-75
2022/05/11 05:13:43;;;;;;;2.47;1.63;;;;;;;15.31;80.45;99170.25;8419662;28;20044;-77
2022/05/11 05:17:44;;;;;;;5.23;1.60;;;;;;;15.57;79.60;99174.75;8423102;28;20060;-76
2022/05/11 05:21:46;;;;;;;1.75;1.58;;;;;;;16.01;77.65;99176.13;8401770;28;20459;-75
2022/05/11 05:25:48;;;;;;;2.20;1.75;;;;;;;16.11;76.60;99174.91;8423073;28;20135;-75
2022/05/11 05:34:09;;;;;;;1.63;1.48;;;;;;;17.64;71.13;99173.31;8411067;28;20055;-76
2022/05/11 05:38:11;;;;;;;2.83;2.03;;;;;;;18.02;68.25;99169.31;8403430;28;20069;-75
2022/05/11 05:42:17;;;;;;;2.10;1.33;;;;;;;18.13;67.51;99176.75;8412604;28;20408;-75
2022/05/11 05:46:19;;;;;;;2.25;1.50;;;;;;;18.20;67.16;99174.75;8397072;28;20086;-75
2022/05/11 05:50:21;;;;;;;1.75;1.33;;;;;;;18.41;65.51;99182.66;8390272;28;20040;-77
2022/05/11 05:54:23;;;;;;;3.63;1.40;;;;;;;18.80;64.76;99175.88;8395091;28;20067;-75
2022/05/11 05:58:24;;;;;;;1.95;1.35;;;;;;;19.21;63.87;99175.00;8404869;28;20134;-75
2022/05/11 06:02:26;;;;;;;1.40;1.30;;;;;;;19.59;62.89;99169.88;8387929;28;20144;-76
2022/05/11 06:06:27;;;;;;;2.45;1.38;;;;;;;19.99;61.26;99165.41;8396360;28;20047;-76
2022/05/11 06:10:29;;;;;;;3.63;1.30;;;;;;;20.39;60.08;99165.25;8392367;28;20064;-76
2022/05/11 06:14:31;;;;;;;1.30;1.20;;;;;;;20.81;59.48;99158.81;8371274;28;20670;-76
2022/05/11 06:18:32;;;;;;;1.40;1.30;;;;;;;21.14;58.26;99161.53;8394021;28;20037;-76
2022/05/11 06:22:34;;;;;;;1.65;1.10;;;;;;;21.44;56.30;99164.44;8392491;28;20051;-76
2022/05/11 06:26:36;;;;;;;1.20;1.10;;;;;;;21.80;55.77;99160.78;8415716;28;20448;-77
2022/05/11 06:30:57;;;;;;;1.27;1.10;;;;;;;22.06;56.16;99168.16;8393564;28;20056;-76
2022/05/11 06:34:59;;;;;;;1.20;1.10;;;;;;;22.39;54.87;99161.94;8398018;28;20070;-76
2022/05/11 06:39:00;;;;;;;1.17;1.08;;;;;;;22.55;55.11;99152.19;8414907;28;20339;-76
2022/05/11 06:43:03;;;;;;;0.95;0.90;;;;;;;22.90;54.43;99156.31;8383168;28;20036;-76
2022/05/11 06:47:05;;;;;;;3.65;1.20;;;;;;;23.25;53.03;99161.34;8380239;28;20661;-76
2022/05/11 06:51:06;;;;;;;1.95;1.17;;;;;;;23.47;51.18;99153.78;8404810;28;20420;-77
2022/05/11 06:59:33;;;;;;;;;;;;;;;23.70;49.20;99162.19;8409123;28;20044;-76
2022/05/11 07:03:34;;;;;;;2.63;1.02;;;;;;;23.72;48.91;99162.94;8388068;28;19927;-76
2022/05/11 07:07:36;;;;;;;;;;;;;;;23.85;48.97;99152.41;8393139;28;20048;-77
2022/05/11 07:15:58;;;;;;;1.70;1.33;;;;;;;24.15;48.92;99152.28;8387891;28;20041;-75
2022/05/11 07:20:03;;;;;;;1.95;1.00;;;;;;;24.37;48.29;99156.13;8407852;28;20044;-76
2022/05/11 07:24:05;;;;;;;4.43;1.20;;;;;;;24.34;47.14;99147.50;8373108;28;20040;-77
2022/05/11 07:28:07;;;;;;;1.70;1.10;;;;;;;24.41;46.26;99138.19;8411713;28;20052;-77
2022/05/11 07:32:09;;;;;;;1.50;1.30;;;;;;;24.57;47.25;99146.00;8396082;28;20067;-77
2022/05/11 07:36:12;;;;;;;2.83;1.15;;;;;;;24.63;46.79;99145.63;8379529;28;20075;-76
2022/05/11 07:40:16;;;;;;;2.83;1.10;;;;;;;24.89;46.88;99143.88;8395235;28;20043;-76
2022/05/11 07:44:21;;;;;;;2.25;0.90;;;;;;;24.88;45.74;99150.16;8378818;28;20066;-76
2022/05/11 07:48:23;;;;;;;2.63;1.10;;;;;;;25.13;46.91;99142.25;8407952;28;20058;-75
2022/05/11 07:52:25;;;;;;;6.03;1.20;;;;;;;25.48;47.07;99145.13;8393326;28;20044;-76
2022/05/11 08:00:47;;;;;;;1.67;1.02;;;;;;;25.97;44.53;99131.06;8380246;28;20055;-75
2022/05/11 08:04:49;;;;;;;6.30;1.17;;;;;;;26.27;43.77;99130.66;8385644;28;20163;-74
2022/05/11 08:08:50;;;;;;;1.40;0.82;;;;;;;26.41;43.06;99137.69;8408263;28;20040;-73
2022/05/11 08:12:52;;;;;;;;;;;;;;;26.60;42.70;99130.03;8388627;28;20464;-74
2022/05/11 08:16:53;;;;;;;1.30;0.80;;;;;;;26.59;41.59;99141.66;8378033;28;19958;-74
2022/05/11 08:20:55;;;;;;;;;;;;;;;26.58;41.73;99133.78;8368727;28;20036;-74
2022/05/11 08:24:57;;;;;;;2.90;1.05;;;;;;;26.64;41.16;99135.97;8382897;28;19931;-74
2022/05/11 08:28:58;;;;;;;2.47;1.10;;;;;;;26.61;40.65;99131.72;8400848;28;20040;-74
2022/05/11 08:37:40;;;;;;;1.55;1.30;;;;;;;26.37;41.17;99126.38;8383365;28;20076;-73
2022/05/11 08:41:50;;;;;;;2.58;1.10;;;;;;;26.45;39.86;99128.50;8383088;28;20055;-74
2022/05/11 08:46:14;;;;;;;1.48;1.10;;;;;;;26.35;40.90;99130.13;8395640;28;20622;-74
2022/05/11 08:50:18;;;;;;;4.30;0.90;;;;;;;26.55;42.23;99131.31;8386718;28;20100;-74
2022/05/11 08:54:20;;;;;;;1.50;1.02;;;;;;;26.92;42.20;99122.25;8383198;28;20047;-74
2022/05/11 08:58:34;;;;;;;3.53;1.13;;;;;;;26.88;40.03;99133.28;8415377;28;20131;-74
2022/05/11 09:02:57;;;;;;;3.85;1.00;;;;;;;26.82;40.49;99131.06;8379026;28;20046;-75
2022/05/11 09:06:59;;;;;;;5.18;1.00;;;;;;;26.92;40.74;99130.25;8402202;28;20097;-74
2022/05/11 09:11:00;;;;;;;2.33;1.08;;;;;;;27.00;40.12;99124.38;8417467;28;20079;-74
2022/05/11 09:15:04;;;;;;;3.70;1.08;;;;;;;27.09;40.75;99116.53;8407197;28;20071;-75
2022/05/11 09:19:29;;;;;;;4.50;0.95;;;;;;;26.98;40.51;99118.28;8412327;28;20207;-74
2022/05/11 09:23:34;;;;;;;3.08;1.08;;;;;;;27.03;39.53;99110.81;8415756;28;20043;-74
2022/05/11 09:27:37;;;;;;;3.70;1.23;;;;;;;27.29;38.93;99111.47;8391942;28;20052;-74
2022/05/11 09:31:39;;;;;;;3.00;1.10;;;;;;;27.16;39.76;99116.91;8398029;28;20080;-75
2022/05/11 09:35:42;;;;;;;3.47;1.13;;;;;;;27.02;39.04;99095.81;8401748;28;20653;-74
2022/05/11 09:39:53;;;;;;;8.45;1.00;;;;;;;27.37;40.87;99103.72;8419273;28;20411;-73
2022/05/11 09:43:58;;;;;;;13.70;1.10;;;;;;;27.57;39.07;99119.03;8417424;28;20131;-73
2022/05/11 09:48:06;;;;;;;1.00;0.80;;;;;;;27.52;37.19;99112.34;8419056;28;20516;-73
2022/05/11 09:52:08;;;;;;;4.20;1.02;;;;;;;27.51;36.18;99100.00;8392081;28;20067;-73
2022/05/11 09:56:17;;;;;;;1.80;1.10;;;;;;;27.89;37.12;99105.81;8399885;28;20083;-74
2022/05/11 10:00:34;;;;;;;2.28;1.00;;;;;;;27.90;36.31;99079.97;8391809;28;20047;-75
2022/05/11 10:04:43;;;;;;;2.10;0.80;;;;;;;28.16;35.62;99083.19;8415609;28;20503;-76
2022/05/11 10:08:45;;;;;;;0.80;0.80;;;;;;;28.08;33.35;99089.16;8407867;28;20159;-76
2022/05/11 10:12:47;;;;;;;3.17;0.60;;;;;;;27.64;33.42;99071.38;8408849;28;20172;-75
2022/05/11 10:26:13;;;;;;;2.53;1.15;;;;;;;27.79;35.26;99066.66;8397318;28;20048;-76
2022/05/11 10:30:23;;;;;;;2.33;0.80;;;;;;;28.10;34.01;99063.19;8382535;28;20083;-76
2022/05/11 10:34:43;;;;;;;2.90;0.70;;;;;;;28.21;34.84;99052.50;8400157;28;20075;-75
2022/05/11 10:39:13;;;;;;;3.50;0.70;;;;;;;28.18;34.01;99044.72;8381918;28;20055;-75
2022/05/11 10:43:54;;;;;;;1.65;0.90;;;;;;;28.35;33.47;99064.72;8394722;28;20181;-76
2022/05/11 10:48:41;;;;;;;1.95;0.80;;;;;;;28.51;33.27;99064.28;8394992;28;20361;-75
2022/05/11 10:53:01;;;;;;;4.88;0.80;;;;;;;28.46;33.70;99039.78;8385540;28;20436;-75
2022/05/11 10:57:23;;;;;;;2.88;0.80;;;;;;;28.52;32.86;99034.78;8408205;28;20071;-75
2022/05/11 11:01:37;;;;;;;6.55;1.00;;;;;;;28.16;33.27;99038.66;8384012;28;20126;-75
2022/05/11 11:07:11;;;;;;;0.88;0.65;;;;;;;27.82;34.27;99037.03;8411613;28;20071;-74
2022/05/11 11:10:31;;;;;;;1.02;0.70;;;;;;;27.50;35.17;99031.63;8388608;28;20063;-75
2022/05/11 11:14:37;;;;;;;6.43;1.00;;;;;;;27.84;35.87;99011.94;8407276;28;20043;-75
2022/05/11 11:18:43;;;;;;;5.30;1.00;;;;;;;28.21;33.70;99012.44;8414870;28;20139;-74
2022/05/11 11:23:06;;;;;;;2.58;0.70;;;;;;;27.85;33.78;99013.66;8405770;28;20131;-75
2022/05/11 11:27:09;;;;;;;4.30;0.70;;;;;;;27.70;33.94;99009.56;8411420;28;20082;-74
2022/05/11 11:31:12;;;;;;;3.72;1.00;;;;;;;27.56;33.58;99012.44;8409698;28;20062;-74
2022/05/11 11:35:23;;;;;;;1.77;0.70;;;;;;;27.80;34.21;98994.47;8396175;28;20105;-74
2022/05/11 11:39:48;;;;;;;3.37;0.87;;;;;;;28.38;33.14;98997.72;8411279;28;20525;-75
2022/05/11 11:44:31;;;;;;;6.38;0.70;;;;;;;28.87;33.42;98996.22;8412316;28;20048;-74
2022/05/11 11:48:35;;;;;;;3.17;0.75;;;;;;;29.18;32.53;98989.06;8407445;28;20075;-74
2022/05/11 11:52:43;;;;;;;2.63;0.98;;;;;;;29.31;31.27;98978.97;8391362;28;20044;-74
2022/05/11 11:56:47;;;;;;;1.50;1.00;;;;;;;29.39;32.25;98989.00;8413983;28;20044;-74
2022/05/11 12:00:48;;;;;;;2.30;0.68;;;;;;;29.11;31.08;98987.91;8409793;28;20056;-74
2022/05/11 12:05:11;;;;;;;2.45;0.88;;;;;;;28.74;31.34;98974.19;8407037;28;20054;-75
2022/05/11 12:17:59;;;;;;;4.70;0.60;;;;;;;28.98;31.91;98958.72;8397950;28;20535;-73
2022/05/11 12:22:04;;;;;;;1.65;0.60;;;;;;;28.75;32.04;98959.84;8400809;28;20043;-74
2022/05/11 12:26:10;;;;;;;2.22;0.60;;;;;;;28.79;33.16;98966.63;8381679;28;20048;-74
2022/05/11 12:30:43;;;;;;;4.20;0.80;;;;;;;29.32;30.52;98940.56;8400873;28;20040;-74
2022/05/11 12:34:46;;;;;;;9.30;1.45;;;;;;;29.46;30.97;98958.09;8378122;28;20086;-75
2022/05/11 12:38:51;;;;;;;3.78;0.77;;;;;;;29.74;30.50;98943.06;8387139;28;20458;-74
2022/05/11 12:42:58;;;;;;;4.30;0.65;;;;;;;29.74;29.00;98937.69;8393236;28;20099;-74
2022/05/11 12:47:04;;;;;;;1.33;0.60;;;;;;;29.93;28.96;98940.41;8417567;28;20047;-74
2022/05/11 12:51:08;;;;;;;4.25;0.70;;;;;;;29.95;28.59;98933.06;8416982;28;20040;-74
2022/05/11 12:55:10;;;;;;;1.83;0.60;;;;;;;30.03;29.31;98935.91;8394434;28;20127;-74
2022/05/11 12:59:22;;;;;;;2.08;0.68;;;;;;;29.87;28.43;98940.13;8399386;28;20052;-74
2022/05/11 13:03:25;;;;;;;;;;;;;;;29.80;28.61;98929.09;8407657;28;20079;-74
2022/05/11 13:07:34;;;;;;;7.93;0.77;;;;;;;30.03;29.44;98933.22;8390868;28;19932;-74
2022/05/11 13:11:37;;;;;;;4.57;0.63;;;;;;;29.83;27.33;98931.53;8386059;28;20047;-75
2022/05/11 13:15:42;;;;;;;3.67;0.60;;;;;;;29.49;28.33;98933.72;8401582;28;20583;-74
2022/05/11 13:19:55;;;;;;;3.20;0.73;;;;;;;29.76;28.88;98917.00;8402031;28;20478;-74
2022/05/11 13:23:57;;;;;;;6.38;0.80;;;;;;;29.75;27.51;98912.63;8404958;28;20159;-73
2022/05/11 13:28:19;;;;;;;1.25;0.60;;;;;;;29.61;27.80;98899.66;8411322;28;20135;-74
2022/05/11 13:32:24;;;;;;;6.80;0.63;;;;;;;29.67;27.25;98889.25;8395962;28;20060;-73
2022/05/11 13:36:42;;;;;;;7.03;0.68;;;;;;;29.71;28.82;98903.19;8392736;28;20052;-73
2022/05/11 13:41:05;;;;;;;4.07;0.60;;;;;;;29.90;27.82;98897.00;8396099;28;20043;-73
2022/05/11 13:45:08;;;;;;;5.15;0.60;;;;;;;29.63;26.39;98893.19;8378469;28;20348;-74
2022/05/11 13:49:24;;;;;;;2.15;0.47;;;;;;;29.72;28.47;98883.47;8362915;28;21676;-74
2022/05/11 13:53:33;;;;;;;8.90;0.70;;;;;;;30.08;26.95;98882.78;8399274;28;20040;-74
2022/05/11 13:57:37;;;;;;;4.25;0.60;;;;;;;30.11;26.63;98881.66;8375476;28;20047;-74
2022/05/11 14:01:44;;;;;;;3.28;0.70;;;;;;;30.14;26.68;98876.00;8390036;28;20444;-73
2022/05/11 14:05:47;;;;;;;2.67;0.70;;;;;;;30.15;26.61;98869.66;8393709;28;20045;-74
2022/05/11 14:09:48;;;;;;;0.93;0.60;;;;;;;30.31;26.52;98863.69;8378460;28;20549;-74
2022/05/11 14:13:51;;;;;;;6.13;0.60;;;;;;;30.48;26.09;98859.44;8396280;28;20094;-76
2022/05/11 14:17:54;;;;;;;5.72;0.60;;;;;;;30.20;24.38;98862.06;8394719;28;20127;-75
2022/05/11 14:21:56;;;;;;;6.65;0.70;;;;;;;30.02;25.14;98859.22;8411196;28;20051;-74
2022/05/11 14:25:57;;;;;;;3.67;0.70;;;;;;;30.07;25.79;98857.00;8414037;28;20059;-75
2022/05/11 14:29:59;;;;;;;6.32;0.60;;;;;;;30.22;25.90;98841.31;8389902;28;20712;-74
2022/05/11 14:34:01;;;;;;;5.38;0.88;;;;;;;30.19;24.23;98846.13;8410554;28;20072;-74
2022/05/11 14:38:04;;;;;;;1.33;0.60;;;;;;;30.18;25.10;98831.91;8406498;28;20047;-74
2022/05/11 14:42:06;;;;;;;2.75;0.50;;;;;;;30.10;24.79;98844.31;8403303;28;20143;-75
2022/05/11 14:46:19;;;;;;;6.75;0.60;;;;;;;30.11;24.32;98830.75;8397243;28;20541;-74
2022/05/11 14:50:22;;;;;;;2.30;1.35;;;;;;;29.98;23.98;98830.19;8400009;28;20432;-75
2022/05/11 14:54:24;;;;;;;1.35;0.68;;;;;;;30.10;24.15;98830.91;8402531;28;20044;-74
2022/05/11 15:02:45;;;;;;;2.60;0.60;;;;;;;30.13;23.90;98827.94;8383902;28;20074;-75
2022/05/11 15:06:47;;;;;;;1.98;0.60;;;;;;;30.21;25.54;98825.41;8404168;28;20052;-75
2022/05/11 15:13:29;;;;;;;0.57;0.40;;;;;;;30.23;24.82;98818.91;8383642;28;20048;-75
2022/05/11 15:15:11;;;;;;;1.88;0.60;;;;;;;30.38;25.17;98825.50;8390417;28;20082;-75
2022/05/11 15:19:13;;;;;;;1.27;0.50;;;;;;;30.49;25.12;98832.47;8386067;28;20121;-75
2022/05/11 15:23:16;;;;;;;3.22;0.70;;;;;;;30.49;24.23;98832.47;8407122;28;20290;-75
2022/05/11 15:27:18;;;;;;;3.47;0.70;;;;;;;30.60;24.84;98828.78;8380831;28;20062;-74
2022/05/11 15:31:20;;;;;;;1.77;0.40;;;;;;;30.66;24.68;98833.56;8397800;28;20060;-75
2022/05/11 15:35:21;;;;;;;2.60;0.57;;;;;;;30.89;24.85;98829.53;8379892;28;20150;-74
2022/05/11 15:39:26;;;;;;;1.45;0.40;;;;;;;30.81;22.74;98839.31;8377017;28;20047;-74
2022/05/11 15:43:28;;;;;;;1.55;0.50;;;;;;;30.66;22.62;98836.25;8397932;28;20760;-76
2022/05/11 15:47:33;;;;;;;1.73;0.40;;;;;;;30.43;21.42;98832.22;8389682;28;20696;-75
2022/05/11 15:51:35;;;;;;;2.10;0.50;;;;;;;30.43;22.03;98841.13;8378614;28;20123;-75
2022/05/11 15:55:37;;;;;;;0.95;0.50;;;;;;;30.51;22.85;98835.00;8377124;28;20327;-74
2022/05/11 15:59:39;;;;;;;1.27;0.40;;;;;;;30.46;22.46;98837.28;8402784;28;20080;-75
2022/05/11 16:03:42;;;;;;;0.85;0.50;;;;;;;30.42;22.20;98835.91;8395092;28;20087;-75
2022/05/11 16:07:44;;;;;;;4.53;0.60;;;;;;;30.45;21.58;98835.59;8404146;28;20054;-75
2022/05/11 16:11:45;;;;;;;2.53;0.45;;;;;;;30.50;22.20;98839.53;8368246;28;20159;-75
2022/05/11 16:15:47;;;;;;;3.13;0.70;;;;;;;30.29;21.17;98836.22;8389054;28;20056;-76
2022/05/11 16:19:51;;;;;;;4.32;0.50;;;;;;;30.01;22.74;98848.66;8404306;28;20086;-75
2022/05/11 16:23:53;;;;;;;4.78;0.40;;;;;;;29.56;21.57;98843.88;8388787;28;20054;-75
2022/05/11 16:27:55;;;;;;;9.05;1.00;;;;;;;28.96;22.36;98847.56;8406491;28;20074;-75
2022/05/11 16:31:57;;;;;;;7.40;0.95;;;;;;;28.44;22.61;98849.44;8385884;28;20060;-74
2022/05/11 16:35:59;;;;;;;6.65;0.40;;;;;;;28.14;24.08;98842.19;8398767;28;20060;-74
2022/05/11 16:40:03;;;;;;;3.95;0.50;;;;;;;27.75;24.95;98854.41;8408442;28;20777;-74
2022/05/11 16:44:06;;;;;;;1.10;0.43;;;;;;;27.44;24.54;98862.25;8403274;28;20047;-75
2022/05/11 16:48:07;;;;;;;4.90;0.70;;;;;;;27.14;25.09;98851.44;8366224;28;20076;-75
2022/05/11 16:52:14;;;;;;;1.00;0.70;;;;;;;26.98;24.96;98841.97;8402884;28;20119;-75
2022/05/11 16:56:15;;;;;;;3.92;0.57;;;;;;;26.88;25.24;98845.50;8403877;28;20075;-74
2022/05/11 17:00:17;;;;;;;3.42;0.57;;;;;;;26.78;26.07;98846.25;8406007;28;20052;-74
2022/05/11 17:04:18;;;;;;;;;;;;;;;26.65;26.48;98832.19;8405520;28;20040;-74
2022/05/11 17:08:20;;;;;;;2.10;0.50;;;;;;;26.49;27.31;98850.34;8389648;28;19990;-75
2022/05/11 17:12:22;;;;;;;1.67;0.63;;;;;;;26.33;27.45;98845.34;8387436;28;20072;-74
2022/05/11 17:16:24;;;;;;;5.93;0.60;;;;;;;26.25;28.65;98839.78;8384494;28;20052;-74
2022/05/11 17:20:25;;;;;;;3.03;0.63;;;;;;;26.07;28.22;98842.06;8413294;28;20051;-74
2022/05/11 17:24:27;;;;;;;1.90;0.70;;;;;;;25.92;28.27;98837.03;8394243;28;20063;-74
2022/05/11 17:28:28;;;;;;;;;;;;;;;25.84;29.06;98843.78;8416010;28;20383;-74
2022/05/11 17:32:35;;;;;;;3.38;0.60;;;;;;;25.72;29.77;98835.91;8390825;28;19924;-73
2022/05/11 17:36:36;;;;;;;0.90;0.50;;;;;;;25.59;30.62;98833.28;8390403;28;20451;-74
2022/05/11 17:40:41;;;;;;;1.25;0.55;;;;;;;25.47;30.98;98842.16;8412039;28;20792;-74
2022/05/11 17:44:42;;;;;;;2.08;0.70;;;;;;;25.38;31.18;98825.09;8410722;28;20720;-74
2022/05/11 17:48:44;;;;;;;;;;;;;;;25.29;32.19;98834.56;8391687;28;20083;-74
2022/05/11 17:52:47;;;;;;;2.80;0.60;;;;;;;25.18;32.94;98833.69;8412747;28;20015;-74
2022/05/11 17:56:48;;;;;;;8.77;0.90;;;;;;;25.12;33.09;98842.09;8385694;28;20329;-74
2022/05/11 18:00:50;;;;;;;2.50;0.70;;;;;;;25.02;33.58;98844.56;8396260;28;20495;-74
2022/05/11 18:04:52;;;;;;;;;;;;;;;24.92;34.02;98836.38;8404158;28;20047;-74
2022/05/11 18:08:54;;;;;;;4.88;1.00;;;;;;;24.86;34.82;98849.25;8383732;28;19971;-74
2022/05/11 18:12:57;;;;;;;4.13;0.70;;;;;;;24.68;36.15;98841.66;8399987;28;20542;-74
2022/05/11 18:16:59;;;;;;;3.33;0.68;;;;;;;24.49;37.67;98849.22;8402735;28;20232;-74
2022/05/11 18:21:00;;;;;;;3.45;0.68;;;;;;;24.27;38.31;98846.34;8392586;28;20097;-74
2022/05/11 18:25:03;;;;;;;0.98;0.70;;;;;;;23.98;40.54;98841.19;8403446;28;20036;-73
2022/05/11 18:29:04;;;;;;;7.63;1.10;;;;;;;23.69;42.07;98844.97;8408749;28;20040;-74
2022/05/11 18:33:07;;;;;;;2.88;0.60;;;;;;;23.41;42.90;98849.41;8408718;28;20044;-73
2022/05/11 18:37:09;;;;;;;4.78;0.80;;;;;;;23.17;43.53;98851.88;8408048;28;20094;-73
2022/05/11 18:41:11;;;;;;;2.92;0.70;;;;;;;22.85;44.50;98853.06;8392902;28;20044;-73
2022/05/11 18:45:13;;;;;;;2.58;0.70;;;;;;;22.62;45.42;98851.81;8405306;28;20036;-73
2022/05/11 18:49:14;;;;;;;10.15;1.00;;;;;;;22.39;46.82;98858.53;8407182;28;20079;-73
2022/05/11 18:53:16;;;;;;;28.85;1.33;;;;;;;22.12;48.05;98865.50;8362735;28;20131;-72
2022/05/11 18:57:17;;;;;;;70.88;3.13;;;;;;;21.96;47.41;98869.03;8391200;28;20163;-72
2022/05/11 19:01:19;;;;;;;;;;;;;;;21.84;48.32;98858.31;8402197;28;20040;-72
2022/05/11 19:05:21;;;;;;;22.30;1.23;;;;;;;21.64;50.15;98873.53;8408207;28;19932;-72
2022/05/11 19:09:23;;;;;;;;;;;;;;;21.46;50.62;98868.47;8406933;28;20663;-72
2022/05/11 19:13:25;;;;;;;5.00;0.73;;;;;;;21.26;51.55;98875.72;8391727;28;19924;-71
2022/05/11 19:17:27;;;;;;;1.75;0.85;;;;;;;21.00;52.48;98885.06;8388642;28;20083;-72
2022/05/11 19:21:28;;;;;;;2.92;0.50;;;;;;;20.78;53.45;98889.81;8406993;28;20052;-72
2022/05/11 19:25:30;;;;;;;3.92;0.90;;;;;;;20.58;54.33;98888.25;8411055;28;20130;-72
2022/05/11 19:29:31;;;;;;;0.63;0.63;;;;;;;20.37;54.74;98895.47;8406804;28;20127;-72
2022/05/11 19:33:33;;;;;;;2.83;0.80;;;;;;;20.29;55.08;98905.56;8385747;28;20464;-72
2022/05/11 19:37:37;;;;;;;5.70;0.88;;;;;;;20.07;55.94;98912.84;8407420;28;20079;-72
2022/05/11 19:41:38;;;;;;;1.67;0.70;;;;;;;19.90;56.78;98921.59;8373147;28;20063;-73
2022/05/11 19:45:41;;;;;;;6.07;1.05;;;;;;;19.78;57.20;98919.59;8406110;28;20044;-72
2022/05/11 19:49:42;;;;;;;4.05;0.90;;;;;;;19.65;58.69;98921.97;8407561;28;20048;-72
2022/05/11 19:53:45;;;;;;;2.53;1.38;;;;;;;19.46;59.79;98929.88;8404487;28;20052;-72
2022/05/11 19:57:47;;;;;;;3.00;0.90;;;;;;;19.33;60.35;98934.00;8389604;28;20059;-72
2022/05/11 20:01:50;;;;;;;;;;;;;;;19.23;60.70;98930.13;8384929;28;20099;-72
2022/05/11 20:05:55;;;;;;;2.35;0.77;;;;;;;19.10;60.82;98932.47;8392243;28;19927;-71
2022/05/11 20:09:57;;;;;;;0.93;0.65;;;;;;;18.97;61.33;98947.09;8403607;28;20422;-71